sensor_id;sensor_type;location;lat;lon;timestamp;P1;durP1;ratioP1;P2;durP2;ratioP2
68484;SDS011;55472;50.060;21.960;2023-02-14T00:00:31;18.47;;;7.37;;
68484;SDS011;55472;50.060;21.960;2023-02-14T00:03:17;21.85;;;7.32;;
68484;SDS011;55472;50.060;21.960;2023-02-14T00:05:43;22.88;;;8.55;;
68484;SDS011;55472;50.060;21.960;2023-02-14T00:08:09;25.17;;;8.27;;
68484;SDS011;55472;50.060;21.960;2023-02-14T00:10:37;24.55;;;8.23;;
68484;SDS011;55472;50.060;21.960;2023-02-14T00:13:03;23.97;;;8.00;;
68484;SDS011;55472;50.060;21.960;2023-02-14T00:15:29;24.65;;;8.00;;
68484;SDS011;55472;50.060;21.960;2023-02-14T00:17:56;23.77;;;7.55;;
68484;SDS011;55472;50.060;21.960;2023-02-14T00:20:26;26.65;;;8.38;;
68484;SDS011;55472;50.060;21.960;2023-02-14T00:22:53;25.33;;;7.80;;
68484;SDS011;55472;50.060;21.960;2023-02-14T00:25:19;24.57;;;7.87;;
68484;SDS011;55472;50.060;21.960;2023-02-14T00:27:46;24.08;;;7.43;;
68484;SDS011;55472;50.060;21.960;2023-02-14T00:30:12;19.00;;;6.18;;
68484;SDS011;55472;50.060;21.960;2023-02-14T00:32:39;19.60;;;6.68;;
68484;SDS011;55472;50.060;21.960;2023-02-14T00:35:07;22.58;;;7.22;;
68484;SDS011;55472;50.060;21.960;2023-02-14T00:37:34;22.73;;;6.67;;
68484;SDS011;55472;50.060;21.960;2023-02-14T00:40:01;22.02;;;7.28;;
68484;SDS011;55472;50.060;21.960;2023-02-14T00:42:27;23.75;;;7.10;;
68484;SDS011;55472;50.060;21.960;2023-02-14T00:44:54;22.90;;;6.47;;
68484;SDS011;55472;50.060;21.960;2023-02-14T00:47:20;19.42;;;6.18;;
68484;SDS011;55472;50.060;21.960;2023-02-14T00:49:46;15.13;;;5.40;;
68484;SDS011;55472;50.060;21.960;2023-02-14T00:52:12;20.65;;;7.25;;
68484;SDS011;55472;50.060;21.960;2023-02-14T00:54:39;23.02;;;6.25;;
68484;SDS011;55472;50.060;21.960;2023-02-14T00:57:05;18.63;;;6.22;;
68484;SDS011;55472;50.060;21.960;2023-02-14T00:59:31;17.25;;;6.68;;
68484;SDS011;55472;50.060;21.960;2023-02-14T01:01:57;18.90;;;6.40;;
68484;SDS011;55472;50.060;21.960;2023-02-14T01:04:24;18.20;;;6.65;;
68484;SDS011;55472;50.060;21.960;2023-02-14T01:06:50;17.75;;;5.60;;
68484;SDS011;55472;50.060;21.960;2023-02-14T01:09:16;20.48;;;6.60;;
68484;SDS011;55472;50.060;21.960;2023-02-14T01:11:42;19.98;;;5.93;;
68484;SDS011;55472;50.060;21.960;2023-02-14T01:14:09;18.63;;;6.23;;
68484;SDS011;55472;50.060;21.960;2023-02-14T01:16:37;18.88;;;7.07;;
68484;SDS011;55472;50.060;21.960;2023-02-14T01:19:03;17.75;;;6.40;;
68484;SDS011;55472;50.060;21.960;2023-02-14T01:21:31;18.40;;;6.25;;
68484;SDS011;55472;50.060;21.960;2023-02-14T01:24:01;19.92;;;6.68;;
68484;SDS011;55472;50.060;21.960;2023-02-14T01:26:30;22.17;;;7.13;;
68484;SDS011;55472;50.060;21.960;2023-02-14T01:28:58;16.63;;;5.75;;
68484;SDS011;55472;50.060;21.960;2023-02-14T01:31:25;16.42;;;5.80;;
68484;SDS011;55472;50.060;21.960;2023-02-14T01:33:54;14.45;;;5.20;;
68484;SDS011;55472;50.060;21.960;2023-02-14T01:36:23;14.10;;;5.60;;
68484;SDS011;55472;50.060;21.960;2023-02-14T01:38:57;16.37;;;5.53;;
68484;SDS011;55472;50.060;21.960;2023-02-14T01:41:27;15.45;;;5.90;;
68484;SDS011;55472;50.060;21.960;2023-02-14T01:43:59;13.15;;;5.82;;
68484;SDS011;55472;50.060;21.960;2023-02-14T01:46:29;16.10;;;5.32;;
68484;SDS011;55472;50.060;21.960;2023-02-14T01:49:02;19.10;;;5.32;;
68484;SDS011;55472;50.060;21.960;2023-02-14T01:51:43;14.97;;;5.50;;
68484;SDS011;55472;50.060;21.960;2023-02-14T01:54:26;18.00;;;5.57;;
68484;SDS011;55472;50.060;21.960;2023-02-14T01:56:59;11.90;;;5.10;;
68484;SDS011;55472;50.060;21.960;2023-02-14T01:59:35;12.00;;;4.53;;
68484;SDS011;55472;50.060;21.960;2023-02-14T02:02:08;15.05;;;4.88;;
68484;SDS011;55472;50.060;21.960;2023-02-14T02:04:37;13.70;;;5.10;;
68484;SDS011;55472;50.060;21.960;2023-02-14T02:07:08;14.00;;;4.72;;
68484;SDS011;55472;50.060;21.960;2023-02-14T02:09:49;12.70;;;4.82;;
68484;SDS011;55472;50.060;21.960;2023-02-14T02:12:21;13.32;;;4.97;;
68484;SDS011;55472;50.060;21.960;2023-02-14T02:14:49;13.23;;;4.70;;
68484;SDS011;55472;50.060;21.960;2023-02-14T02:17:20;12.80;;;4.77;;
68484;SDS011;55472;50.060;21.960;2023-02-14T02:20:32;13.35;;;5.07;;
68484;SDS011;55472;50.060;21.960;2023-02-14T02:35:11;11.65;;;4.65;;
68484;SDS011;55472;50.060;21.960;2023-02-14T02:52:09;13.20;;;4.15;;
68484;SDS011;55472;50.060;21.960;2023-02-14T02:55:11;12.95;;;4.13;;
68484;SDS011;55472;50.060;21.960;2023-02-14T02:57:47;12.18;;;4.32;;
68484;SDS011;55472;50.060;21.960;2023-02-14T03:00:18;11.20;;;4.00;;
68484;SDS011;55472;50.060;21.960;2023-02-14T03:02:47;11.40;;;4.30;;
68484;SDS011;55472;50.060;21.960;2023-02-14T03:05:36;10.38;;;4.20;;
68484;SDS011;55472;50.060;21.960;2023-02-14T03:08:03;11.82;;;4.57;;
68484;SDS011;55472;50.060;21.960;2023-02-14T03:10:31;12.95;;;4.80;;
68484;SDS011;55472;50.060;21.960;2023-02-14T03:33:27;15.77;;;4.88;;
68484;SDS011;55472;50.060;21.960;2023-02-14T03:36:10;12.68;;;4.88;;
68484;SDS011;55472;50.060;21.960;2023-02-14T03:38:54;12.95;;;4.68;;
68484;SDS011;55472;50.060;21.960;2023-02-14T03:41:43;10.67;;;4.23;;
68484;SDS011;55472;50.060;21.960;2023-02-14T03:44:16;12.95;;;4.78;;
68484;SDS011;55472;50.060;21.960;2023-02-14T03:46:46;11.73;;;4.47;;
68484;SDS011;55472;50.060;21.960;2023-02-14T03:49:18;9.73;;;4.05;;
68484;SDS011;55472;50.060;21.960;2023-02-14T03:51:49;13.55;;;4.57;;
68484;SDS011;55472;50.060;21.960;2023-02-14T03:54:19;11.00;;;4.40;;
68484;SDS011;55472;50.060;21.960;2023-02-14T03:57:07;12.88;;;4.57;;
68484;SDS011;55472;50.060;21.960;2023-02-14T03:59:44;11.23;;;4.55;;
68484;SDS011;55472;50.060;21.960;2023-02-14T04:04:44;12.60;;;4.43;;
68484;SDS011;55472;50.060;21.960;2023-02-14T04:07:16;14.57;;;4.37;;
68484;SDS011;55472;50.060;21.960;2023-02-14T04:09:45;12.65;;;4.82;;
68484;SDS011;55472;50.060;21.960;2023-02-14T04:12:12;12.30;;;4.50;;
68484;SDS011;55472;50.060;21.960;2023-02-14T04:14:41;13.80;;;5.00;;
68484;SDS011;55472;50.060;21.960;2023-02-14T04:17:07;12.35;;;5.18;;
68484;SDS011;55472;50.060;21.960;2023-02-14T04:19:52;12.70;;;4.77;;
68484;SDS011;55472;50.060;21.960;2023-02-14T04:22:18;13.63;;;4.78;;
68484;SDS011;55472;50.060;21.960;2023-02-14T04:24:45;13.55;;;4.32;;
68484;SDS011;55472;50.060;21.960;2023-02-14T04:27:11;12.13;;;4.72;;
68484;SDS011;55472;50.060;21.960;2023-02-14T04:29:47;15.00;;;4.90;;
68484;SDS011;55472;50.060;21.960;2023-02-14T04:32:20;14.90;;;4.97;;
68484;SDS011;55472;50.060;21.960;2023-02-14T04:34:47;19.80;;;6.45;;
68484;SDS011;55472;50.060;21.960;2023-02-14T04:37:14;17.20;;;5.95;;
68484;SDS011;55472;50.060;21.960;2023-02-14T04:39:43;15.73;;;5.65;;
68484;SDS011;55472;50.060;21.960;2023-02-14T04:42:09;18.27;;;5.75;;
68484;SDS011;55472;50.060;21.960;2023-02-14T04:44:36;18.67;;;5.83;;
68484;SDS011;55472;50.060;21.960;2023-02-14T04:47:05;14.32;;;5.38;;
68484;SDS011;55472;50.060;21.960;2023-02-14T04:49:32;19.15;;;5.50;;
68484;SDS011;55472;50.060;21.960;2023-02-14T04:51:58;15.43;;;5.28;;
68484;SDS011;55472;50.060;21.960;2023-02-14T04:54:25;16.77;;;5.32;;
68484;SDS011;55472;50.060;21.960;2023-02-14T04:56:52;13.80;;;5.17;;
68484;SDS011;55472;50.060;21.960;2023-02-14T04:59:18;13.63;;;5.32;;
68484;SDS011;55472;50.060;21.960;2023-02-14T05:01:44;14.40;;;4.85;;
68484;SDS011;55472;50.060;21.960;2023-02-14T05:04:10;17.73;;;5.57;;
68484;SDS011;55472;50.060;21.960;2023-02-14T05:06:36;15.60;;;5.50;;
68484;SDS011;55472;50.060;21.960;2023-02-14T05:09:03;14.40;;;5.50;;
68484;SDS011;55472;50.060;21.960;2023-02-14T05:11:29;14.65;;;5.07;;
68484;SDS011;55472;50.060;21.960;2023-02-14T05:13:56;13.23;;;5.18;;
68484;SDS011;55472;50.060;21.960;2023-02-14T05:16:22;15.20;;;5.90;;
68484;SDS011;55472;50.060;21.960;2023-02-14T05:18:49;13.95;;;4.82;;
68484;SDS011;55472;50.060;21.960;2023-02-14T05:21:15;16.57;;;5.73;;
68484;SDS011;55472;50.060;21.960;2023-02-14T05:23:42;12.65;;;4.78;;
68484;SDS011;55472;50.060;21.960;2023-02-14T05:26:08;14.60;;;5.82;;
68484;SDS011;55472;50.060;21.960;2023-02-14T05:28:34;16.08;;;5.88;;
68484;SDS011;55472;50.060;21.960;2023-02-14T05:31:01;14.75;;;5.53;;
68484;SDS011;55472;50.060;21.960;2023-02-14T05:33:27;21.03;;;6.37;;
68484;SDS011;55472;50.060;21.960;2023-02-14T05:35:53;16.77;;;6.30;;
68484;SDS011;55472;50.060;21.960;2023-02-14T05:38:19;19.05;;;6.10;;
68484;SDS011;55472;50.060;21.960;2023-02-14T05:40:45;16.95;;;6.25;;
68484;SDS011;55472;50.060;21.960;2023-02-14T05:43:12;15.05;;;5.82;;
68484;SDS011;55472;50.060;21.960;2023-02-14T05:45:38;15.27;;;5.90;;
68484;SDS011;55472;50.060;21.960;2023-02-14T05:48:04;19.70;;;6.45;;
68484;SDS011;55472;50.060;21.960;2023-02-14T05:50:30;19.45;;;6.60;;
68484;SDS011;55472;50.060;21.960;2023-02-14T05:52:57;18.10;;;6.43;;
68484;SDS011;55472;50.060;21.960;2023-02-14T05:55:23;21.98;;;7.32;;
68484;SDS011;55472;50.060;21.960;2023-02-14T05:57:50;20.37;;;7.63;;
68484;SDS011;55472;50.060;21.960;2023-02-14T06:00:17;16.73;;;6.68;;
68484;SDS011;55472;50.060;21.960;2023-02-14T06:02:44;17.02;;;6.38;;
68484;SDS011;55472;50.060;21.960;2023-02-14T06:05:10;20.95;;;7.97;;
68484;SDS011;55472;50.060;21.960;2023-02-14T06:07:36;18.83;;;7.65;;
68484;SDS011;55472;50.060;21.960;2023-02-14T06:10:03;16.73;;;6.37;;
68484;SDS011;55472;50.060;21.960;2023-02-14T06:12:29;17.15;;;6.50;;
68484;SDS011;55472;50.060;21.960;2023-02-14T06:14:55;17.67;;;6.15;;
68484;SDS011;55472;50.060;21.960;2023-02-14T06:17:22;17.88;;;5.90;;
68484;SDS011;55472;50.060;21.960;2023-02-14T06:19:48;19.80;;;6.78;;
68484;SDS011;55472;50.060;21.960;2023-02-14T06:22:14;21.13;;;5.83;;
68484;SDS011;55472;50.060;21.960;2023-02-14T06:24:40;20.10;;;6.63;;
68484;SDS011;55472;50.060;21.960;2023-02-14T06:27:06;14.57;;;5.55;;
68484;SDS011;55472;50.060;21.960;2023-02-14T06:29:32;18.40;;;6.13;;
68484;SDS011;55472;50.060;21.960;2023-02-14T06:31:59;15.18;;;6.05;;
68484;SDS011;55472;50.060;21.960;2023-02-14T06:34:30;17.70;;;6.27;;
68484;SDS011;55472;50.060;21.960;2023-02-14T06:36:56;14.45;;;5.85;;
68484;SDS011;55472;50.060;21.960;2023-02-14T06:39:22;16.63;;;5.53;;
68484;SDS011;55472;50.060;21.960;2023-02-14T06:41:49;14.23;;;6.20;;
68484;SDS011;55472;50.060;21.960;2023-02-14T06:44:15;13.13;;;5.57;;
68484;SDS011;55472;50.060;21.960;2023-02-14T06:46:41;17.53;;;6.43;;
68484;SDS011;55472;50.060;21.960;2023-02-14T06:49:10;15.75;;;5.95;;
68484;SDS011;55472;50.060;21.960;2023-02-14T06:51:38;17.08;;;6.63;;
68484;SDS011;55472;50.060;21.960;2023-02-14T06:54:04;17.17;;;6.28;;
68484;SDS011;55472;50.060;21.960;2023-02-14T06:56:31;18.27;;;6.30;;
68484;SDS011;55472;50.060;21.960;2023-02-14T06:58:57;17.77;;;5.87;;
68484;SDS011;55472;50.060;21.960;2023-02-14T07:01:23;18.90;;;7.00;;
68484;SDS011;55472;50.060;21.960;2023-02-14T07:03:49;17.40;;;6.93;;
68484;SDS011;55472;50.060;21.960;2023-02-14T07:06:15;17.45;;;6.53;;
68484;SDS011;55472;50.060;21.960;2023-02-14T07:08:42;17.88;;;6.88;;
68484;SDS011;55472;50.060;21.960;2023-02-14T07:11:08;16.80;;;6.70;;
68484;SDS011;55472;50.060;21.960;2023-02-14T07:13:34;14.32;;;6.13;;
68484;SDS011;55472;50.060;21.960;2023-02-14T07:16:00;19.42;;;6.55;;
68484;SDS011;55472;50.060;21.960;2023-02-14T07:18:26;17.30;;;6.60;;
68484;SDS011;55472;50.060;21.960;2023-02-14T07:20:53;19.58;;;6.65;;
68484;SDS011;55472;50.060;21.960;2023-02-14T07:23:19;20.33;;;7.60;;
68484;SDS011;55472;50.060;21.960;2023-02-14T07:25:45;19.60;;;7.25;;
68484;SDS011;55472;50.060;21.960;2023-02-14T07:28:11;22.52;;;6.63;;
68484;SDS011;55472;50.060;21.960;2023-02-14T07:30:38;18.38;;;7.13;;
68484;SDS011;55472;50.060;21.960;2023-02-14T07:33:04;19.05;;;6.93;;
68484;SDS011;55472;50.060;21.960;2023-02-14T07:35:30;18.67;;;6.77;;
68484;SDS011;55472;50.060;21.960;2023-02-14T07:37:56;15.90;;;6.20;;
68484;SDS011;55472;50.060;21.960;2023-02-14T07:40:23;18.73;;;6.70;;
68484;SDS011;55472;50.060;21.960;2023-02-14T07:42:56;26.38;;;8.38;;
68484;SDS011;55472;50.060;21.960;2023-02-14T07:45:23;39.83;;;11.60;;
68484;SDS011;55472;50.060;21.960;2023-02-14T07:47:50;17.83;;;6.63;;
68484;SDS011;55472;50.060;21.960;2023-02-14T07:50:19;18.25;;;7.07;;
68484;SDS011;55472;50.060;21.960;2023-02-14T07:52:47;22.13;;;7.55;;
68484;SDS011;55472;50.060;21.960;2023-02-14T07:55:13;18.73;;;7.40;;
68484;SDS011;55472;50.060;21.960;2023-02-14T07:57:40;19.33;;;6.57;;
68484;SDS011;55472;50.060;21.960;2023-02-14T08:00:07;14.00;;;6.00;;
68484;SDS011;55472;50.060;21.960;2023-02-14T08:02:34;16.60;;;6.63;;
68484;SDS011;55472;50.060;21.960;2023-02-14T08:05:00;18.15;;;6.85;;
68484;SDS011;55472;50.060;21.960;2023-02-14T08:07:26;18.95;;;7.38;;
68484;SDS011;55472;50.060;21.960;2023-02-14T08:09:52;17.08;;;6.65;;
68484;SDS011;55472;50.060;21.960;2023-02-14T08:12:18;17.77;;;6.80;;
68484;SDS011;55472;50.060;21.960;2023-02-14T08:15:03;19.95;;;6.78;;
68484;SDS011;55472;50.060;21.960;2023-02-14T08:17:48;17.50;;;6.85;;
68484;SDS011;55472;50.060;21.960;2023-02-14T08:20:14;17.92;;;6.63;;
68484;SDS011;55472;50.060;21.960;2023-02-14T08:22:40;22.52;;;7.95;;
68484;SDS011;55472;50.060;21.960;2023-02-14T08:25:06;23.87;;;7.77;;
68484;SDS011;55472;50.060;21.960;2023-02-14T08:27:33;16.38;;;6.40;;
68484;SDS011;55472;50.060;21.960;2023-02-14T08:29:59;19.17;;;7.35;;
68484;SDS011;55472;50.060;21.960;2023-02-14T08:32:25;18.40;;;6.78;;
68484;SDS011;55472;50.060;21.960;2023-02-14T08:34:51;18.08;;;6.70;;
68484;SDS011;55472;50.060;21.960;2023-02-14T08:37:17;14.87;;;6.07;;
68484;SDS011;55472;50.060;21.960;2023-02-14T08:39:44;16.80;;;6.60;;
68484;SDS011;55472;50.060;21.960;2023-02-14T08:42:10;16.30;;;6.40;;
68484;SDS011;55472;50.060;21.960;2023-02-14T08:44:37;17.05;;;6.85;;
68484;SDS011;55472;50.060;21.960;2023-02-14T08:47:03;17.80;;;7.45;;
68484;SDS011;55472;50.060;21.960;2023-02-14T08:49:29;17.80;;;6.80;;
68484;SDS011;55472;50.060;21.960;2023-02-14T08:51:55;15.75;;;6.47;;
68484;SDS011;55472;50.060;21.960;2023-02-14T08:54:22;22.13;;;7.70;;
68484;SDS011;55472;50.060;21.960;2023-02-14T08:56:48;17.73;;;7.53;;
68484;SDS011;55472;50.060;21.960;2023-02-14T08:59:14;21.10;;;7.95;;
68484;SDS011;55472;50.060;21.960;2023-02-14T09:01:40;19.40;;;7.30;;
68484;SDS011;55472;50.060;21.960;2023-02-14T09:04:06;18.52;;;7.03;;
68484;SDS011;55472;50.060;21.960;2023-02-14T09:06:33;21.50;;;7.32;;
68484;SDS011;55472;50.060;21.960;2023-02-14T09:09:03;18.20;;;6.88;;
68484;SDS011;55472;50.060;21.960;2023-02-14T09:11:30;18.90;;;7.32;;
68484;SDS011;55472;50.060;21.960;2023-02-14T09:13:57;18.37;;;6.90;;
68484;SDS011;55472;50.060;21.960;2023-02-14T09:16:23;20.35;;;7.13;;
68484;SDS011;55472;50.060;21.960;2023-02-14T09:18:50;20.30;;;7.68;;
68484;SDS011;55472;50.060;21.960;2023-02-14T09:21:18;19.60;;;7.65;;
68484;SDS011;55472;50.060;21.960;2023-02-14T09:23:48;20.58;;;7.15;;
68484;SDS011;55472;50.060;21.960;2023-02-14T09:26:15;17.07;;;7.20;;
68484;SDS011;55472;50.060;21.960;2023-02-14T09:28:43;19.42;;;7.55;;
68484;SDS011;55472;50.060;21.960;2023-02-14T09:31:17;22.20;;;7.10;;
68484;SDS011;55472;50.060;21.960;2023-02-14T09:33:47;16.98;;;6.63;;
68484;SDS011;55472;50.060;21.960;2023-02-14T09:36:32;17.80;;;7.13;;
68484;SDS011;55472;50.060;21.960;2023-02-14T09:38:59;19.87;;;7.33;;
68484;SDS011;55472;50.060;21.960;2023-02-14T09:43:55;17.98;;;6.85;;
68484;SDS011;55472;50.060;21.960;2023-02-14T09:47:04;21.17;;;7.88;;
68484;SDS011;55472;50.060;21.960;2023-02-14T09:55:49;17.40;;;6.90;;
68484;SDS011;55472;50.060;21.960;2023-02-14T09:58:22;17.35;;;6.78;;
68484;SDS011;55472;50.060;21.960;2023-02-14T10:01:04;19.48;;;7.30;;
68484;SDS011;55472;50.060;21.960;2023-02-14T10:06:48;12.33;;;4.87;;
68484;SDS011;55472;50.060;21.960;2023-02-14T10:12:38;18.30;;;6.50;;
68484;SDS011;55472;50.060;21.960;2023-02-14T10:15:37;16.52;;;6.30;;
68484;SDS011;55472;50.060;21.960;2023-02-14T10:18:21;15.57;;;6.68;;
68484;SDS011;55472;50.060;21.960;2023-02-14T10:20:57;15.67;;;6.33;;
68484;SDS011;55472;50.060;21.960;2023-02-14T10:23:33;17.80;;;6.32;;
68484;SDS011;55472;50.060;21.960;2023-02-14T10:26:13;16.50;;;6.47;;
68484;SDS011;55472;50.060;21.960;2023-02-14T10:28:51;17.40;;;6.82;;
68484;SDS011;55472;50.060;21.960;2023-02-14T10:31:22;15.25;;;6.15;;
68484;SDS011;55472;50.060;21.960;2023-02-14T10:45:40;13.82;;;6.07;;
68484;SDS011;55472;50.060;21.960;2023-02-14T10:48:23;18.70;;;6.23;;
68484;SDS011;55472;50.060;21.960;2023-02-14T10:51:03;15.00;;;5.85;;
68484;SDS011;55472;50.060;21.960;2023-02-14T10:53:49;16.17;;;6.00;;
68484;SDS011;55472;50.060;21.960;2023-02-14T10:56:31;14.43;;;5.50;;
68484;SDS011;55472;50.060;21.960;2023-02-14T10:59:06;14.32;;;5.55;;
68484;SDS011;55472;50.060;21.960;2023-02-14T11:01:49;20.20;;;6.80;;
68484;SDS011;55472;50.060;21.960;2023-02-14T11:04:18;18.42;;;6.82;;
68484;SDS011;55472;50.060;21.960;2023-02-14T11:06:47;17.52;;;6.90;;
68484;SDS011;55472;50.060;21.960;2023-02-14T11:09:15;13.73;;;5.60;;
68484;SDS011;55472;50.060;21.960;2023-02-14T11:11:47;15.70;;;6.05;;
68484;SDS011;55472;50.060;21.960;2023-02-14T11:14:19;13.40;;;5.53;;
68484;SDS011;55472;50.060;21.960;2023-02-14T11:19:59;14.82;;;6.80;;
68484;SDS011;55472;50.060;21.960;2023-02-14T11:22:38;19.13;;;7.32;;
68484;SDS011;55472;50.060;21.960;2023-02-14T11:27:46;18.53;;;6.90;;
68484;SDS011;55472;50.060;21.960;2023-02-14T11:33:12;16.80;;;6.25;;
68484;SDS011;55472;50.060;21.960;2023-02-14T11:35:57;14.88;;;6.45;;
68484;SDS011;55472;50.060;21.960;2023-02-14T11:38:34;13.18;;;6.10;;
68484;SDS011;55472;50.060;21.960;2023-02-14T11:41:03;13.43;;;5.70;;
68484;SDS011;55472;50.060;21.960;2023-02-14T11:43:41;14.25;;;5.88;;
68484;SDS011;55472;50.060;21.960;2023-02-14T11:46:42;14.20;;;6.10;;
68484;SDS011;55472;50.060;21.960;2023-02-14T11:49:05;11.43;;;5.30;;
68484;SDS011;55472;50.060;21.960;2023-02-14T11:52:07;10.05;;;5.00;;
68484;SDS011;55472;50.060;21.960;2023-02-14T11:54:40;14.67;;;5.80;;
68484;SDS011;55472;50.060;21.960;2023-02-14T11:57:14;15.02;;;5.95;;
68484;SDS011;55472;50.060;21.960;2023-02-14T11:59:44;13.55;;;5.57;;
68484;SDS011;55472;50.060;21.960;2023-02-14T12:02:48;12.35;;;5.38;;
68484;SDS011;55472;50.060;21.960;2023-02-14T12:05:20;13.98;;;5.95;;
68484;SDS011;55472;50.060;21.960;2023-02-14T12:08:13;13.30;;;6.30;;
68484;SDS011;55472;50.060;21.960;2023-02-14T12:10:40;14.55;;;6.45;;
68484;SDS011;55472;50.060;21.960;2023-02-14T12:24:21;14.90;;;5.63;;
68484;SDS011;55472;50.060;21.960;2023-02-14T12:27:29;12.63;;;5.75;;
68484;SDS011;55472;50.060;21.960;2023-02-14T12:30:13;15.23;;;6.03;;
68484;SDS011;55472;50.060;21.960;2023-02-14T12:32:48;16.80;;;6.95;;
68484;SDS011;55472;50.060;21.960;2023-02-14T12:43:55;11.90;;;5.45;;
68484;SDS011;55472;50.060;21.960;2023-02-14T12:52:02;14.55;;;5.85;;
68484;SDS011;55472;50.060;21.960;2023-02-14T13:06:46;14.32;;;5.30;;
68484;SDS011;55472;50.060;21.960;2023-02-14T13:15:13;10.98;;;4.88;;
68484;SDS011;55472;50.060;21.960;2023-02-14T13:20:56;14.27;;;6.03;;
68484;SDS011;55472;50.060;21.960;2023-02-14T13:23:27;15.63;;;5.43;;
68484;SDS011;55472;50.060;21.960;2023-02-14T13:26:09;13.02;;;6.13;;
68484;SDS011;55472;50.060;21.960;2023-02-14T13:29:12;16.23;;;7.18;;
68484;SDS011;55472;50.060;21.960;2023-02-14T13:31:40;13.80;;;6.10;;
68484;SDS011;55472;50.060;21.960;2023-02-14T13:36:56;21.60;;;8.73;;
68484;SDS011;55472;50.060;21.960;2023-02-14T13:41:57;14.32;;;5.80;;
68484;SDS011;55472;50.060;21.960;2023-02-14T13:44:46;14.27;;;6.27;;
68484;SDS011;55472;50.060;21.960;2023-02-14T13:47:22;18.08;;;6.72;;
68484;SDS011;55472;50.060;21.960;2023-02-14T13:52:46;15.95;;;6.93;;
68484;SDS011;55472;50.060;21.960;2023-02-14T13:55:17;13.48;;;6.35;;
68484;SDS011;55472;50.060;21.960;2023-02-14T13:58:00;16.70;;;6.33;;
68484;SDS011;55472;50.060;21.960;2023-02-14T14:00:41;18.27;;;6.60;;
68484;SDS011;55472;50.060;21.960;2023-02-14T14:03:15;15.48;;;6.32;;
68484;SDS011;55472;50.060;21.960;2023-02-14T14:06:11;16.98;;;7.38;;
68484;SDS011;55472;50.060;21.960;2023-02-14T14:08:40;20.35;;;6.90;;
68484;SDS011;55472;50.060;21.960;2023-02-14T14:18:54;20.25;;;7.63;;
68484;SDS011;55472;50.060;21.960;2023-02-14T14:24:34;17.30;;;6.63;;
68484;SDS011;55472;50.060;21.960;2023-02-14T14:27:26;16.77;;;6.90;;
68484;SDS011;55472;50.060;21.960;2023-02-14T14:30:00;15.20;;;6.45;;
68484;SDS011;55472;50.060;21.960;2023-02-14T14:32:41;17.17;;;7.30;;
68484;SDS011;55472;50.060;21.960;2023-02-14T14:37:54;19.50;;;8.00;;
68484;SDS011;55472;50.060;21.960;2023-02-14T14:42:50;22.95;;;9.15;;
68484;SDS011;55472;50.060;21.960;2023-02-14T14:45:22;40.30;;;15.43;;
68484;SDS011;55472;50.060;21.960;2023-02-14T14:47:52;28.10;;;11.43;;
68484;SDS011;55472;50.060;21.960;2023-02-14T14:50:21;39.90;;;15.63;;
68484;SDS011;55472;50.060;21.960;2023-02-14T14:53:00;30.45;;;11.38;;
68484;SDS011;55472;50.060;21.960;2023-02-14T14:55:35;38.13;;;13.98;;
68484;SDS011;55472;50.060;21.960;2023-02-14T14:58:04;45.67;;;17.25;;
68484;SDS011;55472;50.060;21.960;2023-02-14T15:00:56;51.20;;;19.08;;
68484;SDS011;55472;50.060;21.960;2023-02-14T15:03:23;40.97;;;16.03;;
68484;SDS011;55472;50.060;21.960;2023-02-14T15:06:01;36.90;;;13.40;;
68484;SDS011;55472;50.060;21.960;2023-02-14T15:08:40;32.13;;;12.45;;
68484;SDS011;55472;50.060;21.960;2023-02-14T15:11:08;28.25;;;11.27;;
68484;SDS011;55472;50.060;21.960;2023-02-14T15:14:12;27.48;;;10.57;;
68484;SDS011;55472;50.060;21.960;2023-02-14T15:16:48;25.13;;;10.27;;
68484;SDS011;55472;50.060;21.960;2023-02-14T15:19:26;25.92;;;9.93;;
68484;SDS011;55472;50.060;21.960;2023-02-14T15:22:05;25.35;;;10.25;;
68484;SDS011;55472;50.060;21.960;2023-02-14T15:24:42;30.33;;;11.27;;
68484;SDS011;55472;50.060;21.960;2023-02-14T15:27:19;26.10;;;10.63;;
68484;SDS011;55472;50.060;21.960;2023-02-14T15:29:52;26.20;;;10.17;;
68484;SDS011;55472;50.060;21.960;2023-02-14T15:32:24;28.42;;;11.57;;
68484;SDS011;55472;50.060;21.960;2023-02-14T15:34:55;28.58;;;12.07;;
68484;SDS011;55472;50.060;21.960;2023-02-14T15:37:22;45.28;;;16.58;;
68484;SDS011;55472;50.060;21.960;2023-02-14T15:40:14;33.15;;;12.93;;
68484;SDS011;55472;50.060;21.960;2023-02-14T15:45:56;42.97;;;15.02;;
68484;SDS011;55472;50.060;21.960;2023-02-14T15:48:39;73.78;;;23.25;;
68484;SDS011;55472;50.060;21.960;2023-02-14T15:51:14;49.28;;;16.63;;
68484;SDS011;55472;50.060;21.960;2023-02-14T15:54:01;50.30;;;16.05;;
68484;SDS011;55472;50.060;21.960;2023-02-14T15:56:42;65.60;;;19.37;;
68484;SDS011;55472;50.060;21.960;2023-02-14T15:59:20;71.90;;;22.15;;
68484;SDS011;55472;50.060;21.960;2023-02-14T16:01:58;61.80;;;19.13;;
68484;SDS011;55472;50.060;21.960;2023-02-14T16:04:41;49.97;;;14.85;;
68484;SDS011;55472;50.060;21.960;2023-02-14T16:09:48;65.60;;;20.40;;
68484;SDS011;55472;50.060;21.960;2023-02-14T16:12:37;40.60;;;14.60;;
68484;SDS011;55472;50.060;21.960;2023-02-14T16:15:15;46.30;;;14.70;;
68484;SDS011;55472;50.060;21.960;2023-02-14T16:17:46;34.25;;;13.18;;
68484;SDS011;55472;50.060;21.960;2023-02-14T16:20:19;36.05;;;14.07;;
68484;SDS011;55472;50.060;21.960;2023-02-14T16:23:20;41.50;;;14.57;;
68484;SDS011;55472;50.060;21.960;2023-02-14T16:25:50;44.42;;;16.90;;
68484;SDS011;55472;50.060;21.960;2023-02-14T16:28:17;40.50;;;14.95;;
68484;SDS011;55472;50.060;21.960;2023-02-14T16:30:44;33.50;;;12.82;;
68484;SDS011;55472;50.060;21.960;2023-02-14T16:33:15;31.02;;;12.40;;
68484;SDS011;55472;50.060;21.960;2023-02-14T16:35:47;29.20;;;10.33;;
68484;SDS011;55472;50.060;21.960;2023-02-14T16:38:14;32.70;;;11.43;;
68484;SDS011;55472;50.060;21.960;2023-02-14T16:40:44;31.25;;;11.27;;
68484;SDS011;55472;50.060;21.960;2023-02-14T16:43:19;28.98;;;10.20;;
68484;SDS011;55472;50.060;21.960;2023-02-14T16:45:46;35.60;;;11.80;;
68484;SDS011;55472;50.060;21.960;2023-02-14T16:48:12;34.33;;;11.60;;
68484;SDS011;55472;50.060;21.960;2023-02-14T16:50:42;30.85;;;11.02;;
68484;SDS011;55472;50.060;21.960;2023-02-14T16:53:11;31.20;;;12.30;;
68484;SDS011;55472;50.060;21.960;2023-02-14T16:55:49;32.97;;;11.52;;
68484;SDS011;55472;50.060;21.960;2023-02-14T16:58:19;31.95;;;11.25;;
68484;SDS011;55472;50.060;21.960;2023-02-14T17:00:52;30.30;;;11.33;;
68484;SDS011;55472;50.060;21.960;2023-02-14T17:03:19;32.45;;;11.35;;
68484;SDS011;55472;50.060;21.960;2023-02-14T17:05:45;32.35;;;11.45;;
68484;SDS011;55472;50.060;21.960;2023-02-14T17:08:13;33.47;;;11.32;;
68484;SDS011;55472;50.060;21.960;2023-02-14T17:10:40;32.55;;;11.90;;
68484;SDS011;55472;50.060;21.960;2023-02-14T17:13:10;27.97;;;11.03;;
68484;SDS011;55472;50.060;21.960;2023-02-14T17:15:37;34.10;;;11.93;;
68484;SDS011;55472;50.060;21.960;2023-02-14T17:18:10;35.88;;;12.52;;
68484;SDS011;55472;50.060;21.960;2023-02-14T17:20:40;31.60;;;11.48;;
68484;SDS011;55472;50.060;21.960;2023-02-14T17:23:06;32.88;;;11.18;;
68484;SDS011;55472;50.060;21.960;2023-02-14T17:25:33;34.27;;;11.73;;